Time;durP1;ratioP1;P1;durP2;ratioP2;P2;SDS_P1;SDS_P2;PMS_P1;PMS_P2;Temp;Humidity;BMP_temperature;BMP_pressure;BME280_temperature;BME280_humidity;BME280_pressure;Samples;Min_cycle;Max_cycle;Signal;HPM_P1;HPM_P2
2021/03/22 00:01:14;;;;;;;5.60;2.15;;;;;;;0.48;73.84;100874.06;4988737;28;20039;-51
2021/03/22 00:03:41;;;;;;;3.67;1.80;;;;;;;0.54;73.32;100883.69;4988018;28;20050;-48
2021/03/22 00:06:07;;;;;;;2.70;0.98;;;;;;;0.56;73.04;100879.63;4988168;28;20074;-51
2021/03/22 00:08:34;;;;;;;7.18;1.40;;;;;;;0.58;73.03;100875.56;4989177;28;20492;-49
2021/03/22 00:11:02;;;;;;;4.53;1.70;;;;;;;0.75;71.94;100875.06;4978157;28;20148;-50
2021/03/22 00:13:29;;;;;;;3.90;1.48;;;;;;;0.55;71.60;100872.81;4989114;28;20049;-53
2021/03/22 00:16:00;;;;;;;3.92;1.55;;;;;;;0.56;71.27;100867.91;4987473;28;20054;-53
2021/03/22 00:18:31;;;;;;;6.90;1.40;;;;;;;0.42;71.69;100866.97;4989246;28;20519;-49
2021/03/22 00:20:58;;;;;;;4.57;1.50;;;;;;;0.32;72.33;100859.53;4987399;28;20087;-53
2021/03/22 00:23:24;;;;;;;3.45;1.75;;;;;;;0.21;71.90;100863.81;4989261;28;20046;-48
2021/03/22 00:25:51;;;;;;;6.80;1.42;;;;;;;0.23;71.86;100866.44;4987359;28;20054;-49
2021/03/22 00:28:20;;;;;;;4.13;1.67;;;;;;;0.27;72.52;100868.41;4988792;28;20449;-50
2021/03/22 00:30:48;;;;;;;4.47;1.40;;;;;;;0.23;71.77;100858.88;4987453;28;20477;-49
2021/03/22 00:33:16;;;;;;;3.72;1.30;;;;;;;0.19;71.84;100860.34;4988974;28;20061;-50
2021/03/22 00:35:43;;;;;;;5.05;1.80;;;;;;;0.15;71.77;100862.53;4987063;28;20050;-47
2021/03/22 00:38:13;;;;;;;2.25;1.25;;;;;;;0.20;71.15;100862.09;4988165;28;20492;-49
2021/03/22 00:40:41;;;;;;;2.22;1.17;;;;;;;0.28;70.82;100859.22;4988055;28;20448;-47
2021/03/22 00:43:09;;;;;;;3.03;1.10;;;;;;;0.31;70.21;100861.94;4994573;28;20050;-48
2021/03/22 00:45:56;;;;;;;6.65;1.35;;;;;;;0.43;69.80;100856.13;4994415;28;20567;-46
2021/03/22 00:48:24;;;;;;;2.92;1.45;;;;;;;0.48;70.17;100857.31;4995448;28;20050;-49
2021/03/22 00:50:51;;;;;;;3.63;1.20;;;;;;;0.50;69.72;100863.31;4991615;28;20055;-49
2021/03/22 00:53:18;;;;;;;3.40;1.13;;;;;;;0.66;69.20;100866.91;4992347;28;20444;-50
2021/03/22 00:55:45;;;;;;;2.53;1.60;;;;;;;0.95;68.27;100876.41;4992818;28;20515;-48
2021/03/22 00:58:13;;;;;;;3.25;1.27;;;;;;;0.94;67.20;100867.97;4992840;28;20058;-53
2021/03/22 01:00:59;;;;;;;3.63;1.05;;;;;;;1.24;65.61;100868.22;4990637;28;20053;-49
2021/03/22 01:03:32;;;;;;;3.58;1.33;;;;;;;1.17;65.39;100864.44;4992959;28;20052;-48
2021/03/22 01:06:00;;;;;;;1.27;0.90;;;;;;;1.10;65.58;100861.41;4986686;28;20150;-54
2021/03/22 01:08:30;;;;;;;3.15;1.20;;;;;;;0.73;67.18;100859.84;4993250;28;20527;-47
2021/03/22 01:11:14;;;;;;;3.15;1.02;;;;;;;0.95;67.04;100852.06;4988982;28;20054;-50
2021/03/22 01:13:49;;;;;;;3.47;1.02;;;;;;;1.06;65.87;100860.34;4990911;28;20054;-48
2021/03/22 01:16:20;;;;;;;6.13;1.30;;;;;;;1.25;65.25;100855.75;4988153;28;20057;-52
2021/03/22 01:18:50;;;;;;;4.53;1.33;;;;;;;1.25;65.11;100849.84;4987004;28;20074;-50
2021/03/22 01:21:31;;;;;;;4.93;2.08;;;;;;;0.86;67.12;100848.06;4992460;28;20050;-52
2021/03/22 01:23:59;;;;;;;2.35;0.90;;;;;;;0.66;68.12;100849.25;4991089;28;20049;-46
2021/03/22 01:26:30;;;;;;;5.15;1.17;;;;;;;0.56;68.55;100841.84;4988050;28;20210;-52
2021/03/22 01:28:57;;;;;;;4.68;1.23;;;;;;;0.87;66.22;100843.13;4986443;28;20053;-47
2021/03/22 01:31:25;;;;;;;4.90;0.90;;;;;;;1.00;66.45;100832.19;4988118;28;20061;-50
2021/03/22 01:33:53;;;;;;;2.83;0.98;;;;;;;1.18;66.10;100837.59;4986852;28;20050;-49
2021/03/22 01:36:24;;;;;;;3.22;1.20;;;;;;;0.96;66.79;100831.13;4988072;28;20043;-49
2021/03/22 01:38:53;;;;;;;2.90;1.05;;;;;;;0.97;66.41;100830.38;4986628;28;20496;-49
2021/03/22 01:42:04;;;;;;;4.70;1.00;;;;;;;0.83;66.79;100843.66;4988044;28;20054;-52
2021/03/22 01:44:39;;;;;;;1.38;0.85;;;;;;;0.88;66.30;100839.84;4950414;28;20045;-52
2021/03/22 01:47:25;;;;;;;2.08;0.85;;;;;;;1.32;65.18;100835.97;4986452;28;20077;-51
2021/03/22 01:50:15;;;;;;;3.65;1.10;;;;;;;1.12;65.01;100834.66;4986137;28;20126;-50
2021/03/22 01:52:43;;;;;;;3.00;0.80;;;;;;;0.99;65.88;100845.59;4973559;28;20049;-49
2021/03/22 01:55:13;;;;;;;2.58;1.00;;;;;;;0.93;66.35;100843.53;4986943;28;20051;-51
2021/03/22 01:57:44;;;;;;;1.58;0.70;;;;;;;0.89;67.10;100838.19;4986962;28;20061;-47
2021/03/22 02:00:19;;;;;;;3.47;1.00;;;;;;;0.83;67.04;100835.25;4987958;28;20050;-51
2021/03/22 02:02:48;;;;;;;3.03;1.02;;;;;;;0.88;67.39;100838.94;4993462;28;20053;-49
2021/03/22 02:05:21;;;;;;;3.92;0.75;;;;;;;0.76;67.80;100837.38;4995333;28;20050;-48
2021/03/22 02:07:54;;;;;;;3.25;0.75;;;;;;;1.05;67.33;100828.31;4989550;28;20054;-51
2021/03/22 02:10:21;;;;;;;3.17;0.80;;;;;;;1.05;67.35;100828.31;4991084;28;20512;-49
2021/03/22 02:12:48;;;;;;;2.72;0.68;;;;;;;1.00;67.05;100830.56;4989343;28;20561;-49
2021/03/22 02:15:15;;;;;;;3.50;0.90;;;;;;;1.00;67.54;100833.06;4991040;28;20587;-47
2021/03/22 02:17:44;;;;;;;5.30;1.33;;;;;;;0.70;68.74;100836.97;4989529;28;20046;-52
2021/03/22 02:20:48;;;;;;;5.25;1.10;;;;;;;0.83;68.73;100833.59;4990071;28;20059;-49
2021/03/22 02:23:45;;;;;;;5.63;1.08;;;;;;;0.52;69.85;100837.38;4990762;28;20050;-50
2021/03/22 02:26:30;;;;;;;2.40;1.10;;;;;;;0.62;69.38;100828.00;4990103;28;20358;-50
2021/03/22 02:29:09;;;;;;;2.80;1.05;;;;;;;0.64;69.80;100838.19;4993253;28;20097;-52
2021/03/22 02:32:13;;;;;;;5.25;1.08;;;;;;;0.50;70.48;100839.75;4993631;28;20053;-49
2021/03/22 02:34:53;;;;;;;2.42;1.20;;;;;;;0.35;71.49;100837.06;4992964;28;20073;-46
2021/03/22 02:37:46;;;;;;;4.75;1.48;;;;;;;0.12;72.42;100834.63;4994850;28;20046;-47
2021/03/22 02:40:20;;;;;;;4.32;1.10;;;;;;;0.06;73.54;100841.75;4975424;28;20049;-49
2021/03/22 02:42:48;;;;;;;3.30;1.25;;;;;;;0.22;73.21;100837.88;4989349;28;20126;-52
2021/03/22 02:45:42;;;;;;;4.28;1.08;;;;;;;0.28;72.99;100847.53;4990461;28;20054;-48
2021/03/22 02:48:19;;;;;;;2.95;1.30;;;;;;;0.45;73.17;100852.03;4984190;28;20061;-47
2021/03/22 02:50:50;;;;;;;4.72;1.00;;;;;;;0.43;73.29;100851.06;4989057;28;20413;-50
2021/03/22 02:53:44;;;;;;;6.40;1.20;;;;;;;0.30;73.77;100852.66;4990583;28;20412;-46
2021/03/22 02:56:31;;;;;;;5.18;1.00;;;;;;;0.38;73.61;100854.94;4988997;28;20049;-49
2021/03/22 02:59:04;;;;;;;2.70;0.90;;;;;;;0.61;72.37;100863.19;4988669;28;20050;-50
2021/03/22 03:01:38;;;;;;;4.20;1.73;;;;;;;0.31;73.48;100856.91;4992731;28;20061;-50
2021/03/22 03:04:08;;;;;;;4.50;1.33;;;;;;;0.29;73.73;100858.47;4988920;28;20043;-50
2021/03/22 03:06:43;;;;;;;2.05;1.00;;;;;;;0.29;73.85;100856.81;4989227;28;20049;-48
2021/03/22 03:09:10;;;;;;;3.88;1.10;;;;;;;0.32;74.90;100863.69;4987017;28;20046;-50
2021/03/22 03:11:37;;;;;;;6.25;1.52;;;;;;;-0.02;75.95;100863.88;4988757;28;20492;-49
2021/03/22 03:14:04;;;;;;;3.95;1.17;;;;;;;0.06;76.18;100861.91;4988754;28;20377;-47
2021/03/22 03:16:32;;;;;;;3.90;1.20;;;;;;;-0.02;76.64;100864.72;4992315;28;20455;-48
2021/03/22 03:18:59;;;;;;;7.43;1.50;;;;;;;0.08;76.20;100865.38;4988030;28;20165;-55
2021/03/22 03:21:25;;;;;;;4.97;1.20;;;;;;;-0.14;77.39;100870.53;4989720;28;20076;-48
2021/03/22 03:23:53;;;;;;;5.90;1.40;;;;;;;-0.15;77.33;100867.16;4987989;28;20424;-49
2021/03/22 03:26:19;;;;;;;4.47;1.58;;;;;;;0.20;76.54;100882.22;4989304;28;20134;-51
2021/03/22 03:28:46;;;;;;;3.30;1.45;;;;;;;-0.12;77.26;100881.59;4987582;28;20576;-48
2021/03/22 03:31:14;;;;;;;5.80;1.45;;;;;;;-0.05;77.62;100883.78;4991547;28;20050;-50
2021/03/22 03:33:41;;;;;;;4.00;1.38;;;;;;;-0.17;78.08;100886.31;4988099;28;20053;-49
2021/03/22 03:36:07;;;;;;;6.55;1.42;;;;;;;-0.03;78.55;100888.16;4988508;28;20054;-52
2021/03/22 03:38:34;;;;;;;3.50;1.45;;;;;;;-0.06;78.00;100885.41;4993119;28;20042;-50
2021/03/22 03:41:01;;;;;;;3.35;1.63;;;;;;;-0.02;78.02;100877.31;4987673;28;20055;-53
2021/03/22 03:43:27;;;;;;;5.72;1.50;;;;;;;-0.28;79.44;100882.13;4993515;28;20618;-51
2021/03/22 03:45:54;;;;;;;4.70;1.40;;;;;;;-0.29;80.09;100883.78;4987955;28;20099;-54
2021/03/22 03:48:25;;;;;;;3.20;1.20;;;;;;;-0.62;81.63;100883.84;4989236;28;20401;-51
2021/03/22 03:50:57;;;;;;;7.10;1.80;;;;;;;-0.59;81.74;100874.91;4987688;28;20057;-54
2021/03/22 03:53:25;;;;;;;5.80;1.10;;;;;;;-0.70;82.70;100877.38;4991866;28;20057;-50
2021/03/22 03:55:53;;;;;;;5.85;1.77;;;;;;;-0.56;82.57;100877.63;4987772;28;20462;-53
2021/03/22 03:58:19;;;;;;;5.38;1.92;;;;;;;-0.44;82.27;100884.31;4989535;28;20042;-51
2021/03/22 04:00:47;;;;;;;5.05;1.45;;;;;;;-0.50;82.47;100887.28;4987882;28;20050;-51
2021/03/22 04:03:17;;;;;;;6.57;1.45;;;;;;;-0.30;82.31;100892.09;4989114;28;20579;-49
2021/03/22 04:05:45;;;;;;;5.75;1.60;;;;;;;-0.23;82.08;100892.53;4987667;28;20057;-48
2021/03/22 04:08:13;;;;;;;6.13;1.50;;;;;;;-0.63;83.92;100893.03;4988576;28;20141;-49
2021/03/22 04:10:39;;;;;;;5.85;1.45;;;;;;;-0.75;84.90;100889.63;4988405;28;20042;-52
2021/03/22 04:13:06;;;;;;;7.28;1.80;;;;;;;-0.89;86.21;100892.75;4981563;28;20046;-50
2021/03/22 04:15:32;;;;;;;6.28;1.42;;;;;;;-0.62;86.11;100891.41;4988645;28;20064;-51
2021/03/22 04:17:59;;;;;;;4.88;1.45;;;;;;;-0.40;85.01;100902.25;4990379;28;20073;-47
2021/03/22 04:20:26;;;;;;;5.05;1.65;;;;;;;-0.27;84.13;100894.84;4989515;28;20045;-48
2021/03/22 04:22:54;;;;;;;5.18;1.60;;;;;;;-0.55;85.52;100894.50;4991483;28;20050;-47
2021/03/22 04:25:21;;;;;;;7.80;1.73;;;;;;;-0.52;85.50;100908.91;4988691;28;20042;-49
2021/03/22 04:27:47;;;;;;;5.45;1.67;;;;;;;-0.83;86.63;100911.69;4978123;28;20500;-51
2021/03/22 04:30:15;;;;;;;10.63;1.85;;;;;;;-0.72;86.80;100916.63;4988659;28;20057;-49
2021/03/22 04:32:49;;;;;;;9.27;2.10;;;;;;;-0.62;87.07;100914.91;4988261;28;20050;-51
2021/03/22 04:35:20;;;;;;;7.45;2.13;;;;;;;-0.78;87.80;100915.44;4989757;28;20046;-49
2021/03/22 04:37:50;;;;;;;3.90;1.55;;;;;;;-0.79;88.35;100916.19;4988490;28;20050;-50
2021/03/22 04:40:21;;;;;;;7.03;1.85;;;;;;;-0.74;88.11;100919.00;4992156;28;20042;-49
2021/03/22 04:42:49;;;;;;;10.35;2.45;;;;;;;-0.72;88.20;100917.50;4988486;28;20046;-49
2021/03/22 04:45:19;;;;;;;8.43;1.80;;;;;;;-0.73;89.14;100924.94;4991778;28;20048;-49
2021/03/22 04:47:46;;;;;;;5.65;1.80;;;;;;;-0.56;88.58;100927.91;4987992;28;20057;-52
2021/03/22 04:50:16;;;;;;;9.60;2.30;;;;;;;-0.41;88.19;100934.88;4989553;28;20085;-50
2021/03/22 04:52:43;;;;;;;6.32;1.83;;;;;;;-0.44;88.28;100940.53;4987650;28;20053;-46
2021/03/22 04:55:11;;;;;;;7.47;1.98;;;;;;;-0.92;90.36;100935.28;4988551;28;20105;-47
2021/03/22 04:57:43;;;;;;;9.90;2.72;;;;;;;-0.38;90.58;100937.59;4989442;28;20042;-45
2021/03/22 05:00:22;;;;;;;8.02;2.00;;;;;;;-0.53;90.83;100938.22;4992715;28;20070;-49
2021/03/22 05:02:51;;;;;;;8.27;1.90;;;;;;;-0.35;90.14;100936.19;4987311;28;20042;-47
2021/03/22 05:05:19;;;;;;;8.75;2.03;;;;;;;-0.52;90.18;100946.63;4989276;28;20614;-45
2021/03/22 05:07:46;;;;;;;9.80;2.15;;;;;;;-0.40;90.52;100950.06;4991412;28;20464;-52
2021/03/22 05:10:19;;;;;;;10.65;2.28;;;;;;;-0.28;90.02;100942.50;4988547;28;20050;-48
2021/03/22 05:12:46;;;;;;;7.38;1.95;;;;;;;-0.14;90.83;100946.03;4991550;28;20049;-47
2021/03/22 05:15:13;;;;;;;7.25;2.58;;;;;;;-0.48;90.77;100948.63;4989083;28;20052;-46
2021/03/22 05:17:40;;;;;;;11.77;2.58;;;;;;;-0.62;92.42;100946.72;4988603;28;20085;-46
2021/03/22 05:20:18;;;;;;;7.32;2.53;;;;;;;-0.43;92.60;100946.44;4988152;28;20046;-46
2021/03/22 05:22:45;;;;;;;13.77;2.97;;;;;;;-0.27;91.53;100947.69;4987883;28;20053;-48
2021/03/22 05:25:13;;;;;;;15.70;3.17;;;;;;;-0.39;92.64;100943.38;4990766;28;20073;-46
2021/03/22 05:27:39;;;;;;;8.65;2.95;;;;;;;-0.31;92.42;100948.22;4988739;28;20061;-48
2021/03/22 05:30:08;;;;;;;7.38;2.70;;;;;;;-0.39;92.25;100951.81;4987687;28;20042;-47
2021/03/22 05:32:36;;;;;;;8.25;2.38;;;;;;;-0.48;92.95;100965.34;4988731;28;20049;-48
2021/03/22 05:35:19;;;;;;;9.43;2.83;;;;;;;-0.27;92.79;100962.78;4988092;28;20469;-46
2021/03/22 05:37:46;;;;;;;11.05;3.08;;;;;;;-0.18;92.14;100962.56;4992562;28;20038;-44
2021/03/22 05:40:21;;;;;;;12.43;2.50;;;;;;;-0.38;93.37;100967.78;4994458;28;20057;-45
2021/03/22 05:43:15;;;;;;;11.32;2.85;;;;;;;-0.28;93.42;100968.59;4993241;28;20104;-45
2021/03/22 05:45:53;;;;;;;11.88;2.42;;;;;;;-0.08;93.25;100969.16;4993336;28;20060;-49
2021/03/22 05:48:55;;;;;;;9.18;2.13;;;;;;;-0.36;93.66;100968.78;4995120;28;20054;-49
2021/03/22 05:51:28;;;;;;;13.07;3.25;;;;;;;-0.19;94.09;100970.88;4990865;28;20049;-45
2021/03/22 05:54:04;;;;;;;11.65;3.55;;;;;;;0.01;93.68;100973.97;4989766;28;20050;-50
2021/03/22 05:56:45;;;;;;;11.90;3.67;;;;;;;0.07;93.81;100966.84;4998548;28;20920;-48
2021/03/22 05:59:39;;;;;;;18.48;4.90;;;;;;;-0.13;94.31;100968.81;4996509;28;20092;-44
2021/03/22 06:02:24;;;;;;;10.35;4.03;;;;;;;0.41;93.36;100982.72;4990654;28;20398;-51
2021/03/22 06:04:53;;;;;;;20.45;5.53;;;;;;;0.37;92.77;100981.66;4994786;28;20081;-46
2021/03/22 06:07:23;;;;;;;13.98;3.83;;;;;;;0.64;92.49;100981.81;4992387;28;20050;-51
2021/03/22 06:10:06;;;;;;;11.88;3.63;;;;;;;0.71;93.07;100994.97;4994370;28;20053;-51
2021/03/22 06:12:56;;;;;;;20.88;5.65;;;;;;;0.67;92.61;100990.47;4998978;28;20058;-45
2021/03/22 06:15:47;;;;;;;21.52;5.88;;;;;;;0.59;93.75;100990.69;4992780;28;20652;-48
2021/03/22 06:18:32;;;;;;;23.83;7.22;;;;;;;1.26;91.66;101006.31;4997963;28;20038;-52
2021/03/22 06:21:12;;;;;;;26.67;9.02;;;;;;;1.60;90.17;101006.03;4994926;28;20488;-49
2021/03/22 06:23:46;;;;;;;26.42;10.77;;;;;;;2.21;87.95;101022.66;4992421;28;20042;-49
2021/03/22 06:26:19;;;;;;;21.90;8.27;;;;;;;3.06;83.79;101016.19;4992341;28;20485;-48
2021/03/22 06:28:49;;;;;;;16.92;5.85;;;;;;;3.61;79.45;101019.50;4990134;28;20062;-50
2021/03/22 06:31:19;;;;;;;7.93;4.13;;;;;;;3.66;80.28;101028.22;4991674;28;20050;-46
2021/03/22 06:33:49;;;;;;;13.70;4.35;;;;;;;3.72;78.68;101040.38;4990267;28;20050;-47
2021/03/22 06:36:23;;;;;;;12.38;3.13;;;;;;;4.80;74.10;101045.63;4991595;28;20081;-46
2021/03/22 06:38:53;;;;;;;12.25;3.80;;;;;;;5.16;72.85;101046.75;4994353;28;20054;-46
2021/03/22 06:41:49;;;;;;;8.95;3.25;;;;;;;6.34;69.27;101043.47;4991553;28;20065;-45
2021/03/22 06:44:18;;;;;;;15.32;3.25;;;;;;;6.00;68.61;101052.75;4995561;28;20046;-46
2021/03/22 06:46:56;;;;;;;11.80;2.88;;;;;;;6.32;67.81;101054.34;4988953;28;20050;-45
2021/03/22 06:49:31;;;;;;;15.63;3.67;;;;;;;5.71;68.64;101066.53;4995552;28;20061;-46
2021/03/22 06:52:03;;;;;;;17.17;4.22;;;;;;;6.75;66.54;101058.94;4989880;28;20045;-45
2021/03/22 06:54:41;;;;;;;11.50;3.72;;;;;;;7.27;66.42;101063.91;4991789;28;20049;-51
2021/03/22 06:57:22;;;;;;;12.15;3.65;;;;;;;7.26;63.46;101059.63;4990612;28;20054;-44
2021/03/22 07:00:08;;;;;;;12.60;3.30;;;;;;;7.57;62.31;101069.47;4989616;28;20141;-45
2021/03/22 07:02:58;;;;;;;17.25;4.13;;;;;;;7.47;62.54;101068.19;4995632;28;20048;-47
2021/03/22 07:05:27;;;;;;;13.50;3.45;;;;;;;8.87;60.07;101068.09;4993286;28;20046;-46
2021/03/22 07:08:02;;;;;;;13.48;3.88;;;;;;;8.00;60.82;101073.88;4989661;28;20047;-48
2021/03/22 07:11:01;;;;;;;14.82;3.80;;;;;;;10.12;53.17;101081.09;4991467;28;20041;-46
2021/03/22 07:13:32;;;;;;;11.63;3.20;;;;;;;10.47;51.92;101089.09;4966924;28;20049;-46
2021/03/22 07:16:10;;;;;;;12.00;3.88;;;;;;;9.84;54.76;101086.94;4988627;28;20050;-48
2021/03/22 07:18:37;;;;;;;17.38;3.88;;;;;;;9.24;55.14;101089.03;4992683;28;20045;-45
2021/03/22 07:21:11;;;;;;;10.65;4.22;;;;;;;8.51;57.06;101092.16;4989167;28;20438;-48
2021/03/22 07:23:52;;;;;;;13.75;3.97;;;;;;;9.85;54.79;101087.03;4993351;28;20100;-50
2021/03/22 07:26:21;;;;;;;11.35;4.10;;;;;;;8.50;55.85;101083.63;4981857;28;20133;-44
2021/03/22 07:29:00;;;;;;;10.25;3.03;;;;;;;7.21;60.54;101074.69;4988987;28;20125;-47
2021/03/22 07:32:00;;;;;;;8.93;2.90;;;;;;;6.34;60.31;101076.53;4991775;28;20042;-47
2021/03/22 07:34:57;;;;;;;8.10;2.85;;;;;;;6.59;60.11;101086.22;4994234;28;20046;-46
2021/03/22 07:37:48;;;;;;;9.15;3.15;;;;;;;6.55;59.02;101083.44;4990086;28;20043;-46
2021/03/22 07:40:24;;;;;;;5.80;2.22;;;;;;;6.36;59.32;101087.63;4989516;28;20046;-47
2021/03/22 07:43:13;;;;;;;7.78;2.53;;;;;;;6.37;59.76;101080.88;4990227;28;20054;-52
2021/03/22 07:45:57;;;;;;;10.07;2.75;;;;;;;6.64;58.31;101092.38;4997330;28;20066;-46
2021/03/22 07:49:00;;;;;;;11.43;3.60;;;;;;;6.21;60.78;101086.91;4993526;28;20042;-48
2021/03/22 07:51:26;;;;;;;8.32;2.65;;;;;;;6.38;60.27;101088.59;4988488;28;20038;-44
2021/03/22 07:54:14;;;;;;;8.38;2.67;;;;;;;6.28;60.55;101096.56;4992385;28;20053;-48
2021/03/22 07:57:09;;;;;;;14.05;3.10;;;;;;;6.36;59.59;101092.72;4994942;28;20046;-49
2021/03/22 07:59:58;;;;;;;9.02;2.53;;;;;;;6.69;56.89;101086.66;4996881;28;20420;-45
2021/03/22 08:02:44;;;;;;;15.70;2.95;;;;;;;6.51;57.88;101094.25;4991905;28;20045;-45
2021/03/22 08:05:30;;;;;;;8.60;2.03;;;;;;;7.04;56.34;101093.41;4989466;28;20039;-47
2021/03/22 08:08:06;;;;;;;7.90;2.03;;;;;;;6.62;57.33;101096.53;4989658;28;20492;-50
2021/03/22 08:10:40;;;;;;;13.40;3.45;;;;;;;6.80;56.37;101094.00;4996174;28;20512;-48
2021/03/22 08:13:37;;;;;;;8.68;2.55;;;;;;;6.80;56.18;101105.88;4993561;28;20050;-47
2021/03/22 08:16:19;;;;;;;7.35;2.10;;;;;;;7.77;54.17;101113.69;4948930;28;20072;-46
2021/03/22 08:19:02;;;;;;;6.80;2.25;;;;;;;8.37;52.36;101106.91;4988149;28;20047;-46
2021/03/22 08:21:46;;;;;;;7.10;2.38;;;;;;;8.67;49.61;101108.13;4988460;28;20045;-50
2021/03/22 08:24:44;;;;;;;7.22;2.15;;;;;;;10.05;44.71;101117.53;4993113;28;20411;-47
2021/03/22 08:27:16;;;;;;;6.93;2.10;;;;;;;9.90;46.00;101123.84;4981192;28;20046;-48
2021/03/22 08:30:20;;;;;;;7.65;2.47;;;;;;;11.01;43.99;101122.41;4988108;28;20050;-46
2021/03/22 08:33:08;;;;;;;8.05;2.42;;;;;;;10.60;44.59;101124.53;4988033;28;20050;-53
2021/03/22 08:35:48;;;;;;;6.72;2.08;;;;;;;10.71;41.79;101130.88;4993048;28;20045;-50
2021/03/22 08:38:31;;;;;;;8.82;2.50;;;;;;;10.67;43.71;101129.03;4992903;28;20129;-48
2021/03/22 08:40:59;;;;;;;5.88;1.95;;;;;;;10.02;45.43;101140.44;4987737;28;20046;-51
2021/03/22 08:43:25;;;;;;;5.40;1.45;;;;;;;9.33;46.29;101136.25;4992353;28;20052;-49
2021/03/22 08:46:06;;;;;;;5.18;1.83;;;;;;;9.42;45.02;101136.59;4987768;28;20061;-47
2021/03/22 08:48:34;;;;;;;6.15;1.92;;;;;;;9.49;44.47;101140.25;4992405;28;20043;-48
2021/03/22 08:51:05;;;;;;;6.40;2.20;;;;;;;8.64;47.37;101143.78;4993470;28;20413;-51
2021/03/22 08:53:41;;;;;;;4.47;1.95;;;;;;;8.48;48.26;101146.50;4993681;28;20108;-46
2021/03/22 08:56:21;;;;;;;;;;;;;;;8.09;47.60;101138.03;4989114;28;20061;-48
2021/03/22 08:58:52;;;;;;;6.63;2.10;;;;;;;7.99;46.49;101141.81;4989515;28;20364;-48
2021/03/22 09:01:37;;;;;;;6.13;1.65;;;;;;;8.10;48.10;101137.22;4991787;28;20057;-48
2021/03/22 09:04:31;;;;;;;3.27;1.30;;;;;;;7.98;46.77;101141.78;4995859;28;20054;-48
2021/03/22 09:07:11;;;;;;;5.10;1.48;;;;;;;8.39;46.43;101143.56;4984545;28;20511;-48
2021/03/22 09:09:46;;;;;;;5.03;1.20;;;;;;;8.45;46.89;101135.28;4992273;28;20065;-47
2021/03/22 09:12:32;;;;;;;4.38;1.55;;;;;;;7.89;48.21;101140.56;4997124;28;20633;-46
2021/03/22 09:15:07;;;;;;;5.03;1.60;;;;;;;8.44;44.85;101141.22;4991637;28;20074;-47
2021/03/22 09:18:00;;;;;;;5.43;1.23;;;;;;;7.82;46.36;101137.69;4995329;28;20411;-47
2021/03/22 09:20:33;;;;;;;12.20;1.98;;;;;;;8.36;47.05;101140.84;4993450;28;20041;-48
2021/03/22 09:23:03;;;;;;;4.40;1.73;;;;;;;7.61;45.90;101138.47;4991648;28;20150;-46
2021/03/22 09:25:55;;;;;;;4.40;1.60;;;;;;;8.42;47.98;101153.91;4993324;28;20125;-49
2021/03/22 09:28:36;;;;;;;5.55;1.67;;;;;;;8.71;45.48;101150.00;4988252;28;20038;-49
2021/03/22 09:31:16;;;;;;;2.50;1.10;;;;;;;10.09;40.03;101156.06;4991462;28;20054;-52
2021/03/22 09:34:01;;;;;;;11.55;3.08;;;;;;;11.12;38.45;101155.22;4995562;28;20129;-45
2021/03/22 09:36:32;;;;;;;7.57;2.97;;;;;;;11.30;36.74;101160.06;4993397;28;20056;-50
2021/03/22 09:39:04;;;;;;;7.45;3.22;;;;;;;9.83;38.94;101156.81;4991406;28;20054;-45
2021/03/22 09:42:02;;;;;;;3.42;1.80;;;;;;;10.75;39.08;101158.31;4994900;28;20550;-48
2021/03/22 09:44:35;;;;;;;2.95;1.25;;;;;;;10.43;38.21;101162.38;4995111;28;20045;-49
2021/03/22 09:47:14;;;;;;;5.72;1.20;;;;;;;10.68;37.77;101167.50;4990607;28;20579;-47
2021/03/22 09:49:59;;;;;;;2.28;0.80;;;;;;;11.81;35.34;101162.38;5000829;28;20046;-46
2021/03/22 09:53:01;;;;;;;3.72;1.38;;;;;;;11.70;35.97;101156.97;4999463;28;20560;-48
2021/03/22 09:55:38;;;;;;;3.13;0.95;;;;;;;10.62;37.56;101161.28;4999321;28;20061;-46
2021/03/22 09:58:37;;;;;;;4.93;1.20;;;;;;;12.01;34.87;101169.81;4997094;28;20061;-47
2021/03/22 10:01:30;;;;;;;2.88;1.17;;;;;;;11.00;37.71;101160.00;4995077;28;20056;-48
2021/03/22 10:04:23;;;;;;;3.47;1.25;;;;;;;11.78;35.80;101152.03;4991778;28;20432;-49
2021/03/22 10:06:58;;;;;;;4.15;1.48;;;;;;;12.38;34.25;101149.41;4990535;28;20046;-52
2021/03/22 10:09:28;;;;;;;3.75;1.75;;;;;;;12.16;33.66;101155.69;4992668;28;20046;-45
2021/03/22 10:11:57;;;;;;;5.57;1.42;;;;;;;11.61;34.56;101148.13;4990789;28;20074;-53
2021/03/22 10:14:37;;;;;;;4.50;1.40;;;;;;;11.32;37.15;101153.25;4992332;28;20054;-51
2021/03/22 10:17:06;;;;;;;3.90;1.35;;;;;;;11.67;36.96;101151.75;4990824;28;20492;-47
2021/03/22 10:19:38;;;;;;;4.70;1.20;;;;;;;12.44;36.06;101159.84;4994329;28;20078;-50
2021/03/22 10:22:14;;;;;;;5.95;1.48;;;;;;;14.27;30.43;101157.00;4990339;28;20058;-49
2021/03/22 10:25:16;;;;;;;3.97;1.27;;;;;;;13.42;33.05;101164.75;4994632;28;20080;-50
2021/03/22 10:27:43;;;;;;;7.15;1.25;;;;;;;13.78;31.36;101168.09;4994385;28;20053;-48
2021/03/22 10:30:17;;;;;;;4.10;1.02;;;;;;;17.15;28.79;101169.25;4981205;28;20050;-49
2021/03/22 10:32:55;;;;;;;2.90;1.00;;;;;;;15.58;25.50;101165.09;4990617;28;20125;-52
2021/03/22 10:35:22;;;;;;;1.85;0.70;;;;;;;18.19;22.46;101177.47;4991760;28;20141;-48
2021/03/22 10:37:55;;;;;;;1.67;1.02;;;;;;;21.67;20.63;101181.91;4993008;28;20056;-51
2021/03/22 10:40:35;;;;;;;3.20;1.23;;;;;;;22.97;19.78;101190.50;4996392;28;20140;-51
2021/03/22 10:43:04;;;;;;;3.20;0.80;;;;;;;20.56;20.28;101182.13;4994688;28;20058;-52
2021/03/22 10:45:41;;;;;;;3.53;1.15;;;;;;;22.68;19.23;101187.47;4997258;28;20049;-51
2021/03/22 10:48:30;;;;;;;3.35;1.33;;;;;;;25.54;17.07;101191.66;4995394;28;20057;-48
2021/03/22 10:51:10;;;;;;;4.03;0.93;;;;;;;24.67;16.73;101197.41;4993105;28;20129;-50
2021/03/22 10:54:13;;;;;;;2.13;0.85;;;;;;;24.73;16.95;101185.91;4992372;28;20058;-50
2021/03/22 10:56:49;;;;;;;2.80;0.85;;;;;;;24.70;15.79;101197.34;4996129;28;20050;-46
2021/03/22 10:59:20;;;;;;;1.60;0.75;;;;;;;24.44;16.50;101194.50;4993710;28;20523;-47
2021/03/22 11:01:50;;;;;;;1.60;0.70;;;;;;;25.00;14.58;101200.94;4993959;28;20061;-49
2021/03/22 11:04:25;;;;;;;1.10;0.65;;;;;;;23.14;16.13;101195.41;4993724;28;20058;-50
2021/03/22 11:06:53;;;;;;;1.15;0.85;;;;;;;24.60;14.37;101194.09;4990268;28;20516;-48
2021/03/22 11:09:30;;;;;;;2.25;0.90;;;;;;;20.40;18.67;101185.69;4991505;28;20050;-49
2021/03/22 11:11:59;;;;;;;1.45;0.63;;;;;;;24.53;16.54;101195.13;4989765;28;20049;-49
2021/03/22 11:14:31;;;;;;;2.13;0.80;;;;;;;24.79;14.46;101189.25;4991340;28;20042;-54
2021/03/22 11:17:12;;;;;;;3.60;0.90;;;;;;;24.05;17.54;101191.88;4989645;28;20064;-46
2021/03/22 11:19:42;;;;;;;2.47;1.05;;;;;;;25.77;14.64;101189.25;4992839;28;20100;-47
2021/03/22 11:22:29;;;;;;;2.53;1.00;;;;;;;26.56;14.47;101188.56;4989368;28;20405;-47
2021/03/22 11:24:57;;;;;;;2.05;0.80;;;;;;;25.12;14.34;101181.44;4988522;28;20057;-49
2021/03/22 11:27:45;;;;;;;1.63;0.60;;;;;;;25.96;15.11;101192.19;4991923;28;20133;-47
2021/03/22 11:30:13;;;;;;;2.97;0.50;;;;;;;24.97;15.08;101184.47;4988009;28;20608;-51
2021/03/22 11:32:46;;;;;;;1.15;0.60;;;;;;;26.25;13.26;101196.53;4989417;28;20042;-48
2021/03/22 11:35:28;;;;;;;1.05;0.70;;;;;;;24.76;13.01;101194.56;4994335;28;20057;-48
2021/03/22 11:38:00;;;;;;;1.58;0.70;;;;;;;23.66;15.36;101183.97;4991031;28;20071;-44
2021/03/22 11:40:30;;;;;;;1.73;0.80;;;;;;;26.00;13.70;101196.44;4989468;28;20049;-47
2021/03/22 11:43:38;;;;;;;1.48;0.52;;;;;;;23.42;14.20;101200.97;4985375;28;20089;-50
2021/03/22 11:46:23;;;;;;;2.22;0.70;;;;;;;24.82;13.63;101197.06;4986097;28;20066;-50
2021/03/22 11:48:50;;;;;;;2.08;0.70;;;;;;;24.96;14.72;101188.84;4988123;28;20124;-47
2021/03/22 11:51:17;;;;;;;2.35;1.00;;;;;;;22.92;14.82;101176.63;4989942;28;20104;-48
2021/03/22 11:53:59;;;;;;;2.83;0.95;;;;;;;22.51;15.60;101182.50;4988700;28;20049;-49
2021/03/22 11:56:29;;;;;;;1.58;0.90;;;;;;;22.67;16.36;101180.53;4989528;28;20045;-48
2021/03/22 11:59:18;;;;;;;2.97;1.08;;;;;;;21.72;18.53;101184.47;4988803;28;20141;-51
2021/03/22 12:02:22;;;;;;;2.47;1.02;;;;;;;23.33;16.31;101175.00;4991375;28;20092;-44
2021/03/22 12:05:06;;;;;;;2.53;1.10;;;;;;;23.34;17.43;101168.88;4988312;28;20046;-47
2021/03/22 12:07:41;;;;;;;3.78;1.00;;;;;;;21.89;18.27;101158.19;4992917;28;20057;-46
2021/03/22 12:10:30;;;;;;;2.45;0.90;;;;;;;24.54;14.75;101159.31;4988872;28;20054;-50